Time;durP1;ratioP1;P1;durP2;ratioP2;P2;SDS_P1;SDS_P2;PMS_P1;PMS_P2;Temp;Humidity;BMP_temperature;BMP_pressure;BME280_temperature;BME280_humidity;BME280_pressure;Samples;Min_cycle;Max_cycle;Signal;HPM_P1;HPM_P2
2021/06/29 00:00:11;;;;;;;;;9.00;7.50;;;;;24.99;45.16;101037.78;5013658;28;51256;-41
2021/06/29 00:02:36;;;;;;;;;9.75;8.00;;;;;24.99;45.32;101024.75;5019781;28;51125;-41
2021/06/29 00:05:01;;;;;;;;;6.00;6.00;;;;;24.98;45.23;101023.06;5026749;28;50521;-41
2021/06/29 00:07:27;;;;;;;;;6.00;4.75;;;;;24.97;45.48;101015.00;5011668;28;51160;-41
2021/06/29 00:09:52;;;;;;;;;7.00;5.00;;;;;24.97;45.17;101015.00;5012229;28;51097;-41
2021/06/29 00:12:17;;;;;;;;;7.25;5.25;;;;;24.97;45.65;101024.16;5012795;28;51185;-41
2021/06/29 00:14:45;;;;;;;;;4.00;4.00;;;;;24.96;45.51;101014.16;5013863;28;51027;-41
2021/06/29 00:17:10;;;;;;;;;6.00;3.75;;;;;24.96;45.55;101016.09;5015689;27;52654;-41
2021/06/29 00:19:36;;;;;;;;;6.00;5.50;;;;;24.96;45.35;101018.88;5021833;28;50929;-41
2021/06/29 00:22:02;;;;;;;;;4.00;3.00;;;;;24.94;45.36;101018.28;5022609;28;51172;-41
2021/06/29 00:24:27;;;;;;;;;3.50;3.50;;;;;24.93;45.45;101014.69;5012484;28;50940;-41
2021/06/29 00:26:53;;;;;;;;;3.00;2.50;;;;;24.93;45.52;101016.63;5015203;27;51145;-41
2021/06/29 00:29:18;;;;;;;;;4.75;3.00;;;;;24.94;45.52;101018.28;5015556;27;52470;-41
2021/06/29 00:31:43;;;;;;;;;2.00;2.00;;;;;24.93;45.47;101016.63;5017080;28;51252;-41
2021/06/29 00:34:09;;;;;;;;;2.50;2.00;;;;;24.92;45.55;101009.38;5018998;28;51427;-41
2021/06/29 00:36:35;;;;;;;;;4.25;3.00;;;;;24.91;45.48;101004.94;5014964;28;51712;-41
2021/06/29 00:39:00;;;;;;;;;2.00;2.00;;;;;24.91;45.50;101007.72;5016165;28;51092;-43
2021/06/29 00:41:25;;;;;;;;;2.75;2.50;;;;;24.89;45.54;101005.16;5015210;28;51162;-41
2021/06/29 00:43:52;;;;;;;;;2.50;2.00;;;;;24.88;45.39;101000.72;5014867;27;51383;-41
2021/06/29 00:46:18;;;;;;;;;2.25;2.25;;;;;24.88;45.38;100997.94;5030103;28;54193;-41
2021/06/29 00:48:45;;;;;;;;;1.75;1.75;;;;;24.87;45.57;101000.97;5017227;27;51107;-42
2021/06/29 00:51:15;;;;;;;;;2.00;1.25;;;;;24.87;45.56;100999.03;5034556;28;51069;-42
2021/06/29 00:53:42;;;;;;;;;1.75;1.75;;;;;24.86;45.50;101002.91;5015523;28;51010;-41
2021/06/29 00:56:14;;;;;;;;;1.75;1.75;;;;;24.86;45.53;100997.34;5014746;28;51124;-42
2021/06/29 00:58:48;;;;;;;;;1.00;1.00;;;;;24.85;45.59;100994.84;5030668;28;51289;-41
2021/06/29 01:01:15;;;;;;;;;3.00;2.50;;;;;24.84;45.60;100994.00;5016418;28;51192;-42
2021/06/29 01:03:41;;;;;;;;;3.00;2.00;;;;;24.84;45.70;100996.78;5019782;28;51226;-42
2021/06/29 01:06:08;;;;;;;;;4.00;2.00;;;;;24.84;45.71;100994.00;5018668;28;51791;-42
2021/06/29 01:08:34;;;;;;;;;2.00;2.00;;;;;24.84;45.42;100995.94;5015584;28;51362;-42
2021/06/29 01:10:59;;;;;;;;;1.00;1.00;;;;;24.84;45.54;100988.47;5013954;28;51003;-43
2021/06/29 01:13:30;;;;;;;;;2.00;2.00;;;;;24.84;45.67;100982.06;5029997;28;51338;-42
2021/06/29 01:15:56;;;;;;;;;2.00;2.00;;;;;24.83;45.65;100974.84;5013889;28;51074;-43
2021/06/29 01:18:21;;;;;;;;;1.00;0.00;;;;;24.82;45.65;100971.25;5015248;27;50990;-42
2021/06/29 01:20:47;;;;;;;;;1.75;1.75;;;;;24.83;45.54;100977.63;5016495;28;50911;-43
2021/06/29 01:23:15;;;;;;;;;1.00;1.00;;;;;24.82;45.60;100978.72;5022490;28;51258;-42
2021/06/29 01:25:43;;;;;;;;;1.75;1.75;;;;;24.81;45.49;100972.34;5031247;28;51818;-42
2021/06/29 01:33:20;;;;;;;;;1.00;1.00;;;;;24.80;45.36;100970.63;5014922;28;50977;-42
2021/06/29 01:35:45;;;;;;;;;1.50;1.50;;;;;24.79;45.59;100973.66;5029712;28;53027;-44
2021/06/29 01:38:16;;;;;;;;;1.00;1.00;;;;;24.78;45.61;100972.81;5018763;28;51177;-41
2021/06/29 01:40:41;;;;;;;;;1.00;1.00;;;;;24.77;45.53;100974.75;5016022;28;51063;-42
2021/06/29 01:43:06;;;;;;;;;1.25;1.25;;;;;24.77;45.42;100968.38;5013589;27;51313;-42
2021/06/29 01:45:33;;;;;;;;;1.00;0.00;;;;;24.76;45.42;100964.75;5013952;28;51714;-42
2021/06/29 01:48:02;;;;;;;;;1.00;1.00;;;;;24.75;45.50;100965.84;5014104;28;51449;-44
2021/06/29 01:50:27;;;;;;;;;0.50;0.50;;;;;24.75;45.62;100965.84;5014332;27;52287;-43
2021/06/29 01:52:55;;;;;;;;;2.75;1.00;;;;;24.74;45.29;100961.41;5015433;28;51072;-42
2021/06/29 01:55:20;;;;;;;;;1.25;1.00;;;;;24.73;45.93;100959.72;5017888;28;51943;-45
2021/06/29 01:57:48;;;;;;;;;1.50;1.00;;;;;24.74;45.34;100955.03;5016811;28;51348;-43
2021/06/29 02:00:14;;;;;;;;;2.00;1.00;;;;;24.72;45.77;100960.81;5013377;28;51070;-42
2021/06/29 02:02:40;;;;;;;;;1.00;1.00;;;;;24.72;45.61;100954.44;5013554;28;51159;-41
2021/06/29 02:05:06;;;;;;;;;2.75;1.00;;;;;24.71;45.50;100963.84;5013731;28;51898;-41
2021/06/29 02:07:31;;;;;;;;;1.00;1.00;;;;;24.70;45.54;100954.69;5013773;27;51284;-41
2021/06/29 02:09:56;;;;;;;;;1.25;1.25;;;;;24.69;45.69;100947.44;5016192;28;51088;-41
2021/06/29 02:12:22;;;;;;;;;1.50;1.00;;;;;24.68;45.98;100954.06;5016680;28;51458;-42
2021/06/29 02:14:47;;;;;;;;;2.25;1.00;;;;;24.69;45.60;100952.13;5027558;28;51953;-41
2021/06/29 02:17:12;;;;;;;;;1.00;1.00;;;;;24.69;45.28;100952.97;5022825;28;51324;-41
2021/06/29 02:19:38;;;;;;;;;2.00;2.00;;;;;24.69;45.63;100952.13;5014670;28;51035;-41
2021/06/29 02:22:06;;;;;;;;;1.00;1.00;;;;;24.67;46.08;100946.00;5014778;27;51012;-41
2021/06/29 02:24:31;;;;;;;;;1.75;1.25;;;;;24.67;45.70;100955.16;5014610;28;51928;-41
2021/06/29 02:26:56;;;;;;;;;2.00;1.00;;;;;24.67;45.90;100943.25;5022760;27;50965;-40
2021/06/29 02:29:22;;;;;;;;;1.75;1.00;;;;;24.67;45.52;100946.00;5023466;27;51314;-40
2021/06/29 02:31:47;;;;;;;;;1.00;1.00;;;;;24.67;45.49;100948.78;5033834;28;51117;-41
2021/06/29 02:34:12;;;;;;;;;2.00;1.25;;;;;24.66;45.87;100945.16;5014280;28;50926;-40
2021/06/29 02:36:38;;;;;;;;;1.00;1.00;;;;;24.66;45.53;100942.41;5013406;28;51146;-40
2021/06/29 02:39:04;;;;;;;;;1.00;1.00;;;;;24.66;45.46;100947.94;5013165;28;51235;-40
2021/06/29 02:41:29;;;;;;;;;3.00;2.00;;;;;24.65;45.49;100954.56;5015307;28;50619;-40
2021/06/29 02:43:54;;;;;;;;;2.00;2.00;;;;;24.65;45.92;100948.19;5016163;28;52051;-40
2021/06/29 02:46:20;;;;;;;;;1.75;1.50;;;;;24.64;45.62;100954.81;5024505;28;50987;-40
2021/06/29 02:48:45;;;;;;;;;1.00;1.00;;;;;24.64;45.43;100952.06;5020833;27;50894;-40
2021/06/29 02:51:12;;;;;;;;;2.00;2.00;;;;;24.61;45.75;100953.41;5013744;27;50994;-40
2021/06/29 02:53:38;;;;;;;;;1.50;1.50;;;;;24.61;45.68;100945.09;5016512;28;52686;-40
2021/06/29 02:56:03;;;;;;;;;1.75;1.50;;;;;24.62;45.72;100935.69;5014715;28;51083;-40
2021/06/29 02:58:29;;;;;;;;;1.00;1.00;;;;;24.62;45.86;100941.22;5016562;28;51401;-40
2021/06/29 03:00:54;;;;;;;;;1.00;1.00;;;;;24.61;45.76;100936.78;5014689;28;51320;-40
2021/06/29 03:03:19;;;;;;;;;1.50;1.00;;;;;24.61;45.95;100934.00;5012770;28;51724;-41
2021/06/29 03:05:45;;;;;;;;;2.00;2.00;;;;;24.61;45.95;100931.25;5013188;28;51031;-41
2021/06/29 03:08:10;;;;;;;;;1.00;1.00;;;;;24.62;45.58;100921.00;5012723;27;51200;-40
2021/06/29 03:10:35;;;;;;;;;1.00;1.00;;;;;24.61;45.80;100916.56;5014440;27;50964;-40
2021/06/29 03:13:01;;;;;;;;;3.00;3.00;;;;;24.58;46.03;100917.88;5013206;28;51137;-41
2021/06/29 03:15:27;;;;;;;;;2.50;1.00;;;;;24.59;46.24;100911.22;5028363;28;51016;-42
2021/06/29 03:17:52;;;;;;;;;1.50;1.50;;;;;24.58;46.02;100911.47;5028439;27;51133;-41
2021/06/29 03:20:18;;;;;;;;;1.00;1.00;;;;;24.59;45.63;100916.78;5014077;28;51094;-41
2021/06/29 03:22:43;;;;;;;;;2.75;1.50;;;;;24.57;45.63;100910.66;5016834;28;51883;-41
2021/06/29 03:25:09;;;;;;;;;1.00;1.00;;;;;24.56;45.60;100908.97;5013311;28;51188;-41
2021/06/29 03:27:35;;;;;;;;;1.50;1.25;;;;;24.56;45.63;100905.38;5043774;27;51410;-41
2021/06/29 03:30:01;;;;;;;;;2.00;2.00;;;;;24.54;45.77;100907.53;5012884;28;51449;-41
2021/06/29 03:32:26;;;;;;;;;1.25;1.25;;;;;24.54;45.62;100902.84;5014311;28;51051;-41
2021/06/29 03:34:52;;;;;;;;;1.50;1.00;;;;;24.53;45.92;100901.16;5014231;28;51158;-40
2021/06/29 03:37:17;;;;;;;;;1.00;1.00;;;;;24.52;45.63;100907.78;5041729;28;50478;-41
2021/06/29 03:39:42;;;;;;;;;1.00;1.00;;;;;24.53;45.88;100903.94;5029664;28;51004;-41
2021/06/29 03:42:08;;;;;;;;;1.00;1.00;;;;;24.51;45.66;100908.88;5036691;27;50781;-41
2021/06/29 03:44:34;;;;;;;;;1.00;1.00;;;;;24.51;45.72;100911.66;5012460;28;51098;-41
2021/06/29 03:46:59;;;;;;;;;0.00;0.00;;;;;24.50;45.91;100907.22;5012746;28;51224;-41
2021/06/29 03:49:25;;;;;;;;;1.75;1.50;;;;;24.49;45.85;100905.53;5016487;28;51006;-41
2021/06/29 03:51:52;;;;;;;;;1.00;1.00;;;;;24.48;45.76;100904.66;5016879;28;52707;-42
2021/06/29 03:54:18;;;;;;;;;1.50;1.50;;;;;24.48;45.85;100896.34;5012444;28;51110;-43
2021/06/29 03:56:43;;;;;;;;;1.75;1.00;;;;;24.48;45.81;100904.66;5012556;28;51114;-41
2021/06/29 03:59:09;;;;;;;;;2.50;0.75;;;;;24.50;45.81;100904.44;5011923;28;51424;-40
2021/06/29 04:01:36;;;;;;;;;1.50;1.50;;;;;24.51;45.77;100903.34;5011740;28;52323;-41
2021/06/29 04:04:03;;;;;;;;;1.75;1.75;;;;;24.50;45.83;100903.59;5014434;28;50996;-41
2021/06/29 04:06:31;;;;;;;;;1.00;1.00;;;;;24.51;45.66;100908.06;5017775;27;51108;-41
2021/06/29 04:08:58;;;;;;;;;1.00;1.00;;;;;24.50;45.79;100912.75;5024274;28;51054;-41
2021/06/29 04:11:24;;;;;;;;;0.50;0.50;;;;;24.48;45.81;100904.66;5027320;28;52451;-40
2021/06/29 04:13:50;;;;;;;;;1.00;1.00;;;;;24.49;45.95;100905.53;5014830;28;51294;-39
2021/06/29 04:16:16;;;;;;;;;1.25;1.25;;;;;24.49;45.70;100919.38;5015150;28;51084;-39
2021/06/29 04:18:43;;;;;;;;;1.75;1.75;;;;;24.48;46.06;100914.91;5017008;27;51415;-39
2021/06/29 04:21:09;;;;;;;;;1.00;1.00;;;;;24.48;45.63;100914.91;5022757;28;51680;-39
2021/06/29 04:23:34;;;;;;;;;1.00;1.00;;;;;24.48;45.66;100912.13;5018597;27;51050;-39
2021/06/29 04:26:00;;;;;;;;;1.00;1.00;;;;;24.46;45.84;100904.06;5015740;28;50978;-39
2021/06/29 04:28:25;;;;;;;;;1.00;1.00;;;;;24.46;45.53;100900.47;5016974;27;51346;-39
2021/06/29 04:30:51;;;;;;;;;2.50;2.50;;;;;24.44;45.33;100895.19;5016375;28;52060;-39
2021/06/29 04:33:16;;;;;;;;;1.00;1.00;;;;;24.44;45.97;100894.34;5015062;28;51099;-39
2021/06/29 04:35:41;;;;;;;;;2.00;1.75;;;;;24.44;45.54;100899.88;5014402;28;51657;-39
2021/06/29 04:38:07;;;;;;;;;0.75;0.75;;;;;24.43;45.72;100901.81;5019099;28;51082;-39
2021/06/29 04:40:32;;;;;;;;;1.50;1.50;;;;;24.42;45.26;100902.91;5015320;28;51142;-39
2021/06/29 04:42:57;;;;;;;;;1.00;1.00;;;;;24.42;45.71;100907.59;5016885;28;51158;-39
2021/06/29 04:45:26;;;;;;;;;1.75;1.75;;;;;24.41;45.67;100901.22;5036767;27;50477;-39
2021/06/29 04:47:53;;;;;;;;;2.75;2.75;;;;;24.40;45.34;100888.47;5020998;28;51287;-40
2021/06/29 04:50:18;;;;;;;;;0.25;0.25;;;;;24.40;45.36;100894.00;5018334;28;51132;-39
2021/06/29 04:52:44;;;;;;;;;2.00;2.00;;;;;24.40;45.40;100890.41;5016033;28;51210;-39
2021/06/29 04:55:10;;;;;;;;;2.00;1.00;;;;;24.39;45.50;100883.19;5020772;28;51067;-39
2021/06/29 04:57:36;;;;;;;;;2.25;1.00;;;;;24.37;45.43;100883.41;5016585;28;51070;-39
2021/06/29 05:00:07;;;;;;;;;0.50;0.50;;;;;24.38;45.89;100885.09;5014316;28;52406;-39
2021/06/29 05:02:33;;;;;;;;;1.00;1.00;;;;;24.39;45.66;100891.50;5014121;28;51142;-39
2021/06/29 05:04:58;;;;;;;;;2.00;2.00;;;;;24.38;45.66;100889.78;5015522;28;51274;-40
2021/06/29 05:07:23;;;;;;;;;3.00;2.00;;;;;24.37;45.57;100893.63;5016422;27;51247;-40
2021/06/29 05:09:49;;;;;;;;;2.00;1.25;;;;;24.37;45.39;100896.41;5015009;28;51194;-41
2021/06/29 05:12:14;;;;;;;;;1.00;1.00;;;;;24.37;45.65;100905.56;5015246;28;51167;-41
2021/06/29 05:14:39;;;;;;;;;1.75;1.75;;;;;24.37;45.41;100899.19;5014564;28;51934;-41
2021/06/29 05:17:05;;;;;;;;;2.00;1.75;;;;;24.37;45.36;100908.31;5015003;28;51044;-42
2021/06/29 05:19:30;;;;;;;;;2.00;2.00;;;;;24.35;45.16;100912.44;5018949;28;50955;-41
2021/06/29 05:21:55;;;;;;;;;1.00;1.00;;;;;24.33;45.44;100909.91;5015727;27;50964;-41
2021/06/29 05:24:21;;;;;;;;;1.00;1.00;;;;;24.33;45.62;100917.38;5014516;28;51082;-40
2021/06/29 05:26:46;;;;;;;;;2.00;2.00;;;;;24.31;45.40;100925.09;5015906;28;51112;-40
2021/06/29 05:29:12;;;;;;;;;3.75;1.75;;;;;24.30;45.24;100923.38;5037898;27;51703;-42
2021/06/29 05:31:37;;;;;;;;;3.50;3.00;;;;;24.28;45.36;100925.53;5012954;28;51219;-44
2021/06/29 05:34:03;;;;;;;;;3.50;2.75;;;;;24.25;45.47;100934.34;5022482;28;51097;-43
2021/06/29 05:36:29;;;;;;;;;2.50;2.00;;;;;24.24;45.47;100938.19;5025470;27;51098;-44
2021/06/29 05:38:54;;;;;;;;;2.00;2.00;;;;;24.22;44.99;100935.69;5014427;28;51697;-44
2021/06/29 05:41:19;;;;;;;;;6.00;3.00;;;;;24.21;45.48;100934.00;5016009;28;50865;-46
2021/06/29 05:43:45;;;;;;;;;3.00;2.00;;;;;24.20;45.22;100932.31;5018492;28;51138;-43
2021/06/29 05:46:10;;;;;;;;;3.75;3.00;;;;;24.17;45.74;100939.16;5018691;28;51397;-42
2021/06/29 05:48:35;;;;;;;;;4.00;1.25;;;;;24.15;45.58;100941.34;5018238;27;51604;-44
2021/06/29 05:51:01;;;;;;;;;3.00;3.00;;;;;24.14;45.26;100936.91;5017818;27;51210;-44
2021/06/29 05:53:29;;;;;;;;;1.75;1.75;;;;;24.12;45.60;100947.38;5021696;28;50925;-44
2021/06/29 05:55:54;;;;;;;;;4.50;3.00;;;;;24.10;45.73;100946.78;5035941;28;50543;-45
2021/06/29 05:58:20;;;;;;;;;2.00;2.00;;;;;24.10;45.68;100940.41;5018855;28;51165;-45
2021/06/29 06:00:45;;;;;;;;;1.75;1.75;;;;;24.10;45.73;100946.78;5015316;27;51140;-45
2021/06/29 06:03:11;;;;;;;;;2.00;2.00;;;;;24.11;45.89;100953.16;5015336;27;52019;-45
2021/06/29 06:05:36;;;;;;;;;2.25;2.25;;;;;24.12;45.68;100949.31;5013822;28;51027;-51
2021/06/29 06:08:02;;;;;;;;;1.00;1.00;;;;;24.14;45.49;100949.91;5013285;28;50982;-48
2021/06/29 06:10:27;;;;;;;;;2.75;2.25;;;;;24.15;45.59;100957.09;5014235;28;51022;-45
2021/06/29 06:12:53;;;;;;;;;2.00;0.50;;;;;24.16;45.96;100954.09;5013932;28;50899;-50
2021/06/29 06:15:18;;;;;;;;;2.00;2.00;;;;;24.15;45.50;100944.09;5013957;28;51505;-46
2021/06/29 06:17:44;;;;;;;;;2.50;2.25;;;;;24.16;46.07;100956.03;5030660;28;51736;-43
2021/06/29 06:20:11;;;;;;;;;2.00;2.00;;;;;24.16;45.87;100961.56;5020114;27;50977;-43
2021/06/29 06:22:37;;;;;;;;;2.75;2.00;;;;;24.16;46.05;100962.41;5016072;28;51170;-47
2021/06/29 06:25:04;;;;;;;;;2.00;2.00;;;;;24.17;45.99;100963.22;5013790;28;51151;-47
2021/06/29 06:27:29;;;;;;;;;4.00;2.25;;;;;24.15;45.62;100963.47;5015491;27;51791;-44
2021/06/29 06:29:55;;;;;;;;;2.00;2.00;;;;;24.15;46.11;100957.94;5012409;28;51129;-45
2021/06/29 06:32:20;;;;;;;;;3.25;3.25;;;;;24.16;45.89;100959.63;5013095;28;51046;-47
2021/06/29 06:34:45;;;;;;;;;1.00;0.00;;;;;24.16;45.68;100961.56;5014030;28;51221;-45
2021/06/29 06:37:11;;;;;;;;;2.25;2.00;;;;;24.16;45.94;100959.63;5013898;28;51598;-49
2021/06/29 06:39:36;;;;;;;;;3.00;3.00;;;;;24.16;45.78;100956.84;5014039;28;50950;-46
2021/06/29 06:42:01;;;;;;;;;3.00;2.25;;;;;24.16;46.11;100961.56;5029359;28;50914;-45
2021/06/29 06:44:27;;;;;;;;;4.00;2.75;;;;;24.16;45.63;100956.84;5017909;28;51263;-48
2021/06/29 06:46:52;;;;;;;;;1.75;1.75;;;;;24.16;46.03;100959.63;5012876;28;51031;-45
2021/06/29 06:49:18;;;;;;;;;2.25;2.25;;;;;24.16;45.72;100954.09;5014507;28;50918;-45
2021/06/29 06:51:43;;;;;;;;;3.00;3.00;;;;;24.16;45.88;100956.84;5016766;28;51338;-46
2021/06/29 06:54:08;;;;;;;;;3.50;2.50;;;;;24.17;46.05;100957.69;5042421;28;51076;-46
2021/06/29 06:56:34;;;;;;;;;3.25;3.00;;;;;24.16;46.39;100956.84;5013295;28;52321;-48
2021/06/29 06:58:59;;;;;;;;;3.00;1.00;;;;;24.16;45.78;100962.41;5012917;28;50999;-48
2021/06/29 07:01:24;;;;;;;;;1.50;1.00;;;;;24.16;46.17;100961.56;5028481;27;51074;-45
2021/06/29 07:03:50;;;;;;;;;3.00;2.50;;;;;24.15;45.66;100960.72;5014391;28;51373;-45
2021/06/29 07:06:15;;;;;;;;;2.50;2.50;;;;;24.14;45.90;100961.81;5020709;28;51060;-47
2021/06/29 07:08:44;;;;;;;;;3.25;2.50;;;;;24.13;45.86;100965.66;5027811;28;50905;-49
2021/06/29 07:11:10;;;;;;;;;7.00;5.25;;;;;24.10;45.99;100966.16;5013728;28;51030;-49
2021/06/29 07:13:35;;;;;;;;;8.75;4.25;;;;;24.09;46.01;100969.16;5012898;27;51044;-49
2021/06/29 07:16:01;;;;;;;;;2.00;2.00;;;;;24.03;46.42;100965.44;5012021;27;51986;-47
2021/06/29 07:18:26;;;;;;;;;5.75;4.00;;;;;23.99;45.75;100969.78;5012384;28;51124;-48
2021/06/29 07:20:52;;;;;;;;;5.00;4.75;;;;;23.95;46.47;100968.56;5016866;28;51604;-48
2021/06/29 07:23:18;;;;;;;;;2.75;2.50;;;;;23.91;46.54;100978.44;5010403;27;51106;-50
2021/06/29 07:25:44;;;;;;;;;5.50;2.25;;;;;23.88;46.38;100978.94;5027825;28;52766;-46
2021/06/29 07:28:10;;;;;;;;;4.00;3.50;;;;;23.83;46.07;100982.41;5021338;27;51157;-51
2021/06/29 07:30:37;;;;;;;;;4.50;4.50;;;;;23.81;46.32;100980.97;5011163;28;51009;-48
2021/06/29 07:33:03;;;;;;;;;4.75;4.00;;;;;23.77;46.38;100983.41;5010887;28;51457;-48
2021/06/29 07:35:30;;;;;;;;;6.00;5.00;;;;;23.75;46.85;100981.94;5010911;28;51870;-47
2021/06/29 07:37:56;;;;;;;;;3.50;3.50;;;;;23.70;47.21;100974.38;5008482;28;51342;-47
2021/06/29 07:40:21;;;;;;;;;3.75;2.00;;;;;23.69;47.04;100985.69;5013121;28;51092;-50
2021/06/29 07:42:46;;;;;;;;;4.00;3.75;;;;;23.64;46.61;100972.56;5014524;28;51058;-47
2021/06/29 07:45:12;;;;;;;;;3.25;3.25;;;;;23.60;46.62;100974.13;5017819;28;51058;-48
2021/06/29 07:47:39;;;;;;;;;4.00;4.00;;;;;23.58;47.07;100974.38;5017011;28;51177;-47
2021/06/29 07:50:07;;;;;;;;;2.25;2.25;;;;;23.56;46.94;100976.50;5014475;28;51141;-48
2021/06/29 07:52:34;;;;;;;;;4.00;3.00;;;;;23.53;46.59;100968.69;5015628;27;51651;-45
2021/06/29 07:54:59;;;;;;;;;5.25;3.00;;;;;23.52;47.19;100969.75;5014101;28;51090;-48
2021/06/29 07:57:25;;;;;;;;;4.00;2.75;;;;;23.53;46.95;100971.44;5014600;28;51440;-50
2021/06/29 07:59:51;;;;;;;;;2.00;2.00;;;;;23.54;47.12;100978.66;5015429;28;51439;-46
2021/06/29 08:02:17;;;;;;;;;6.00;3.75;;;;;23.54;47.39;100986.09;5016120;28;50894;-43
2021/06/29 08:04:43;;;;;;;;;2.75;2.75;;;;;23.56;47.26;100986.72;5014317;28;51987;-44
2021/06/29 08:07:09;;;;;;;;;4.00;2.00;;;;;23.55;47.17;100980.38;5012335;28;51415;-44
2021/06/29 08:09:34;;;;;;;;;3.00;3.00;;;;;23.56;47.38;100984.81;5034790;28;52381;-45
2021/06/29 08:12:00;;;;;;;;;3.00;2.25;;;;;23.56;47.40;100975.66;5021613;28;51091;-45
2021/06/29 08:14:25;;;;;;;;;3.50;3.50;;;;;23.56;46.95;100982.03;5030483;28;51706;-46
2021/06/29 08:16:51;;;;;;;;;8.75;3.25;;;;;23.56;46.82;100982.03;5024053;28;51206;-43
2021/06/29 08:19:17;;;;;;;;;5.50;3.25;;;;;23.59;47.18;100983.50;5032874;28;50535;-42
2021/06/29 08:21:42;;;;;;;;;9.50;3.75;;;;;23.61;47.82;100987.72;5029507;28;50571;-42
2021/06/29 08:24:08;;;;;;;;;11.25;7.25;;;;;23.65;47.89;100992.75;5025147;28;51321;-43
2021/06/29 08:26:33;;;;;;;;;12.75;7.00;;;;;23.69;48.27;100988.44;5015016;28;51080;-43
2021/06/29 08:28:58;;;;;;;;;42.75;24.25;;;;;23.71;48.29;100986.28;5041110;27;51477;-45
2021/06/29 08:31:24;;;;;;;;;12.25;8.00;;;;;23.75;48.21;100995.75;5014262;28;51124;-43
2021/06/29 08:33:53;;;;;;;;;55.75;30.50;;;;;23.76;48.64;100987.25;5030566;27;51873;-50
2021/06/29 08:36:20;;;;;;;;;17.50;10.50;;;;;23.77;48.32;100991.69;5037261;27;51257;-49
2021/06/29 08:38:46;;;;;;;;;30.50;16.00;;;;;23.79;48.30;100994.22;5018169;27;51137;-48
2021/06/29 08:41:12;;;;;;;;;28.75;14.00;;;;;23.80;48.03;100993.97;5014242;28;51269;-46
2021/06/29 08:43:39;;;;;;;;;17.50;7.50;;;;;23.82;47.92;100996.50;5012919;28;51449;-45
2021/06/29 08:46:05;;;;;;;;;21.00;13.50;;;;;23.83;48.75;100998.19;5013600;28;51353;-47
2021/06/29 08:48:30;;;;;;;;;15.00;10.00;;;;;23.85;47.84;100994.06;5014189;27;51073;-45
2021/06/29 08:50:56;;;;;;;;;14.75;8.75;;;;;23.86;48.46;100984.72;5014325;27;51054;-46
2021/06/29 08:53:21;;;;;;;;;13.75;7.75;;;;;23.86;48.10;100987.50;5013562;28;51177;-46
2021/06/29 08:55:48;;;;;;;;;8.25;3.00;;;;;23.85;47.38;100985.78;5020211;28;51444;-51
2021/06/29 08:58:22;;;;;;;;;8.00;4.00;;;;;23.81;46.77;100989.28;5032396;28;51242;-45
2021/06/29 09:00:49;;;;;;;;;7.75;2.00;;;;;23.77;46.41;100990.84;5044920;28;51419;-46
2021/06/29 09:03:15;;;;;;;;;3.75;2.00;;;;;23.73;46.39;100984.94;5014551;27;51018;-44
2021/06/29 09:05:46;;;;;;;;;5.25;4.00;;;;;23.74;46.48;100994.09;5016276;28;51056;-44
2021/06/29 09:08:16;;;;;;;;;5.00;3.75;;;;;23.75;46.22;100993.00;5014013;28;51093;-43
2021/06/29 09:10:43;;;;;;;;;6.50;5.75;;;;;23.74;46.55;100992.16;5016559;27;51105;-57
2021/06/29 09:13:10;;;;;;;;;8.50;4.75;;;;;23.75;46.43;100995.75;5015657;28;52634;-45
2021/06/29 09:15:36;;;;;;;;;6.50;6.25;;;;;23.74;46.08;100992.16;5028381;27;51368;-47
2021/06/29 09:18:04;;;;;;;;;6.00;3.25;;;;;23.69;45.98;100991.22;5012796;27;51158;-47
2021/06/29 09:20:51;;;;;;;;;3.25;3.25;;;;;23.60;46.11;100988.78;5013358;27;50983;-50
2021/06/29 09:23:32;;;;;;;;;5.25;2.25;;;;;23.58;46.96;100979.03;5026377;27;52027;-48
2021/06/29 09:26:03;;;;;;;;;2.25;2.00;;;;;23.59;46.50;100986.28;5016722;28;51275;-52
2021/06/29 09:28:34;;;;;;;;;3.00;3.00;;;;;23.58;46.88;100984.56;5043100;27;51219;-51
2021/06/29 09:31:01;;;;;;;;;3.00;3.00;;;;;23.57;47.04;100985.66;5013885;27;51421;-48
2021/06/29 09:33:32;;;;;;;;;3.00;3.00;;;;;23.55;46.96;100979.50;5015772;28;51335;-51
2021/06/29 09:36:00;;;;;;;;;4.00;3.50;;;;;23.54;47.04;100978.66;5024626;27;51767;-45
2021/06/29 09:38:30;;;;;;;;;5.00;4.25;;;;;23.54;46.49;100984.19;5021279;27;50959;-47
2021/06/29 09:41:08;;;;;;;;;4.00;4.00;;;;;23.54;46.60;100984.19;5013370;28;51065;-48
2021/06/29 09:43:38;;;;;;;;;3.00;3.00;;;;;23.55;46.65;100980.38;5012222;27;52307;-46
2021/06/29 09:46:07;;;;;;;;;3.00;3.00;;;;;23.56;46.66;100983.97;5014679;28;51382;-45
2021/06/29 09:48:54;;;;;;;;;3.00;2.50;;;;;23.56;46.13;100976.50;5013767;28;50973;-45
2021/06/29 09:51:27;;;;;;;;;2.50;2.50;;;;;23.58;46.84;100974.38;5011856;28;51155;-45
2021/06/29 09:53:54;;;;;;;;;5.00;2.00;;;;;23.62;46.27;100977.50;5025560;28;51944;-48
2021/06/29 09:56:23;;;;;;;;;1.25;1.25;;;;;23.64;46.22;100971.72;5035052;28;51167;-45
2021/06/29 09:58:54;;;;;;;;;3.00;2.50;;;;;23.66;46.65;100964.06;5014825;28;51063;-46
2021/06/29 10:01:22;;;;;;;;;3.00;2.00;;;;;23.69;46.68;100974.63;5018086;28;51352;-45
2021/06/29 10:03:52;;;;;;;;;1.25;1.00;;;;;23.73;46.75;100973.03;5021488;28;51176;-45
2021/06/29 10:06:18;;;;;;;;;2.00;2.00;;;;;23.76;46.13;100972.56;5012046;28;51294;-45
2021/06/29 10:08:49;;;;;;;;;1.25;1.25;;;;;23.77;46.50;100975.09;5011057;27;51255;-47
2021/06/29 10:11:17;;;;;;;;;2.00;2.00;;;;;23.81;46.61;100972.69;5009425;28;51354;-46
2021/06/29 10:13:45;;;;;;;;;4.00;3.25;;;;;23.83;46.47;100978.81;5012399;28;52844;-44
2021/06/29 10:16:12;;;;;;;;;3.25;2.25;;;;;23.85;46.38;100980.25;5012922;28;51049;-48
2021/06/29 10:18:42;;;;;;;;;4.50;1.00;;;;;23.88;46.12;100978.94;5015302;28;51109;-45
2021/06/29 10:21:17;;;;;;;;;2.75;2.75;;;;;23.90;46.20;100971.25;5008963;28;51224;-43
2021/06/29 10:23:43;;;;;;;;;2.25;2.25;;;;;23.92;46.27;100965.47;5012555;28;51113;-46
2021/06/29 10:26:09;;;;;;;;;5.50;2.00;;;;;23.94;45.86;100966.88;5014386;28;51237;-45
2021/06/29 10:28:36;;;;;;;;;1.00;1.00;;;;;23.97;45.37;100965.56;5034273;27;51159;-45
2021/06/29 10:31:02;;;;;;;;;1.00;1.00;;;;;23.98;45.39;100968.09;5011785;28;51429;-44
2021/06/29 10:33:28;;;;;;;;;4.50;2.00;;;;;24.01;45.64;100967.63;5013883;28;51961;-52
2021/06/29 10:35:54;;;;;;;;;3.00;3.00;;;;;24.03;45.21;100961.84;5030363;28;51430;-47
2021/06/29 10:38:20;;;;;;;;;2.00;2.00;;;;;24.05;44.94;100960.50;5013527;28;51371;-46
2021/06/29 10:40:50;;;;;;;;;1.75;1.75;;;;;24.07;45.39;100950.06;5012644;28;51051;-46
2021/06/29 10:43:16;;;;;;;;;4.00;2.00;;;;;24.08;45.22;100957.25;5012399;28;51103;-43
2021/06/29 10:45:42;;;;;;;;;4.00;2.00;;;;;24.09;44.50;100956.19;5015049;28;51020;-43
2021/06/29 10:48:26;;;;;;;;;2.00;2.00;;;;;24.10;45.01;100948.72;5024586;28;51034;-43
2021/06/29 10:50:58;;;;;;;;;3.00;2.00;;;;;24.12;45.09;100954.84;5015796;27;51289;-42
2021/06/29 10:53:50;;;;;;;;;2.00;2.00;;;;;24.13;44.76;100962.88;5013814;28;51033;-42
2021/06/29 10:56:17;;;;;;;;;4.00;2.00;;;;;24.15;44.83;100957.09;5030227;27;51529;-45
2021/06/29 10:58:49;;;;;;;;;3.00;2.75;;;;;24.16;44.77;100954.09;5013378;28;51221;-44
2021/06/29 11:01:26;;;;;;;;;2.50;2.00;;;;;24.17;44.82;100958.53;5011732;28;51190;-47
2021/06/29 11:03:55;;;;;;;;;4.00;2.50;;;;;24.19;44.55;100950.03;5011986;28;51070;-47
2021/06/29 11:06:30;;;;;;;;;2.00;2.00;;;;;24.21;44.76;100960.84;5013903;28;51106;-46
2021/06/29 11:08:59;;;;;;;;;1.50;1.50;;;;;24.21;44.50;100960.84;5014999;28;51149;-44
2021/06/29 11:11:25;;;;;;;;;4.25;3.00;;;;;24.22;44.43;100956.97;5011914;28;51053;-49
2021/06/29 11:13:51;;;;;;;;;3.25;3.00;;;;;24.24;44.01;100960.34;5011902;28;51196;-44
2021/06/29 11:16:17;;;;;;;;;3.00;2.00;;;;;24.24;44.48;100958.41;5010746;28;51044;-48
2021/06/29 11:18:50;;;;;;;;;1.75;1.75;;;;;24.25;43.95;100962.84;5013347;28;51165;-44
2021/06/29 11:21:18;;;;;;;;;1.75;1.75;;;;;24.26;44.13;100963.69;5014388;28;51131;-47
2021/06/29 11:23:43;;;;;;;;;3.50;2.75;;;;;24.27;43.84;100959.84;5023120;27;52356;-47
2021/06/29 11:26:12;;;;;;;;;3.00;2.25;;;;;24.28;43.85;100956.84;5016641;28;50986;-42